createdAt,value
2023-01-28T00:01:19.442Z,89.76
2023-01-28T00:03:53.292Z,90.20
2023-01-28T00:06:25.887Z,89.88
2023-01-28T00:08:55.942Z,89.80
2023-01-28T00:11:26.005Z,89.17
2023-01-28T00:13:57.144Z,89.52
2023-01-28T00:16:27.337Z,89.41
2023-01-28T00:18:57.642Z,89.91
2023-01-28T00:21:29.947Z,89.88
2023-01-28T00:24:00.136Z,89.76
2023-01-28T00:26:30.149Z,89.95
2023-01-28T00:29:00.059Z,90.23
2023-01-28T00:31:30.822Z,90.17
2023-01-28T00:34:03.515Z,90.07
2023-01-28T00:36:39.544Z,90.16
2023-01-28T00:39:09.644Z,90.35
2023-01-28T00:41:39.429Z,90.52
2023-01-28T00:44:11.764Z,89.95
2023-01-28T00:46:41.920Z,89.92
2023-01-28T00:49:12.220Z,90.44
2023-01-28T00:51:48.959Z,90.54
2023-01-28T00:54:19.498Z,90.49
2023-01-28T00:56:49.340Z,90.54
2023-01-28T00:59:19.158Z,90.34
2023-01-28T01:01:51.021Z,90.63
2023-01-28T01:04:27.612Z,90.36
2023-01-28T01:07:00.401Z,90.14
2023-01-28T01:09:30.369Z,90.78
2023-01-28T01:12:00.708Z,90.58
2023-01-28T01:14:30.573Z,90.13
2023-01-28T01:17:00.591Z,89.96
2023-01-28T01:19:30.560Z,90.34
2023-01-28T01:22:03.002Z,90.00
2023-01-28T01:24:34.359Z,90.46
2023-01-28T01:27:06.007Z,90.43
2023-01-28T01:29:35.984Z,89.94
2023-01-28T01:32:06.485Z,89.80
2023-01-28T01:34:36.500Z,90.47
2023-01-28T01:37:10.519Z,90.46
2023-01-28T01:39:40.698Z,90.30
2023-01-28T01:42:14.069Z,90.36
2023-01-28T01:45:01.950Z,90.11
2023-01-28T01:47:42.061Z,90.19
2023-01-28T01:50:21.819Z,90.57
2023-01-28T01:53:01.091Z,90.25
2023-01-28T01:55:38.205Z,90.40
2023-01-28T01:58:13.142Z,90.12
2023-01-28T02:00:44.775Z,89.75
2023-01-28T02:03:15.777Z,89.64
2023-01-28T02:05:46.688Z,89.68
2023-01-28T02:08:25.860Z,89.70
2023-01-28T02:11:02.175Z,89.77
2023-01-28T02:13:45.563Z,89.82
2023-01-28T02:16:16.717Z,89.73
2023-01-28T02:18:48.290Z,89.30
2023-01-28T02:22:04.383Z,89.12
2023-01-28T02:25:05.366Z,89.23
2023-01-28T02:27:52.549Z,89.23
2023-01-28T02:30:28.130Z,89.28
2023-01-28T02:33:03.765Z,89.33
2023-01-28T02:35:43.973Z,89.63
2023-01-28T02:38:21.382Z,89.12
2023-01-28T02:41:07.052Z,89.26
2023-01-28T02:43:41.816Z,89.16
2023-01-28T02:46:34.273Z,88.88
2023-01-28T02:49:07.947Z,89.28
2023-01-28T02:52:03.302Z,89.14
2023-01-28T02:54:42.179Z,88.93
2023-01-28T02:57:25.878Z,89.29
2023-01-28T03:00:07.786Z,89.14
2023-01-28T03:02:44.384Z,89.97
2023-01-28T03:05:23.889Z,89.75
2023-01-28T03:07:56.228Z,89.34
2023-01-28T03:10:28.687Z,89.49
2023-01-28T03:13:14.708Z,89.22
2023-01-28T03:16:03.819Z,89.42
2023-01-28T03:18:52.383Z,89.06
2023-01-28T03:21:42.760Z,89.43
2023-01-28T03:24:32.309Z,89.00
2023-01-28T03:27:28.720Z,87.97
2023-01-28T03:30:24.519Z,89.06
2023-01-28T03:33:12.511Z,89.08
2023-01-28T03:35:55.765Z,88.53
2023-01-28T03:38:42.268Z,88.54
2023-01-28T03:41:14.800Z,89.42
2023-01-28T03:43:45.784Z,88.88
2023-01-28T03:46:15.992Z,88.66
2023-01-28T03:48:49.171Z,89.01
2023-01-28T03:51:19.813Z,89.59
2023-01-28T03:53:51.021Z,89.41
2023-01-28T03:56:24.585Z,89.45
2023-01-28T03:58:57.701Z,89.98
2023-01-28T04:01:28.226Z,89.97
2023-01-28T04:04:00.744Z,89.97
2023-01-28T04:06:31.842Z,89.67
2023-01-28T04:09:20.480Z,89.27
2023-01-28T04:11:51.316Z,87.97
2023-01-28T04:14:28.329Z,88.03
2023-01-28T04:17:20.656Z,87.82
2023-01-28T04:19:53.094Z,87.75
2023-01-28T04:22:24.585Z,86.89
2023-01-28T04:24:54.419Z,87.52
2023-01-28T04:27:24.865Z,87.55
2023-01-28T04:29:56.500Z,87.10
2023-01-28T04:32:41.879Z,86.80
2023-01-28T04:35:28.283Z,87.03
2023-01-28T04:38:11.692Z,86.94
2023-01-28T04:41:14.031Z,86.71
2023-01-28T04:43:46.473Z,87.14
2023-01-28T04:46:23.046Z,87.53
2023-01-28T04:49:00.976Z,88.38
2023-01-28T04:51:49.012Z,88.07
2023-01-28T04:54:37.486Z,88.34
2023-01-28T04:57:09.303Z,88.76
2023-01-28T04:59:39.324Z,88.54
2023-01-28T05:02:09.325Z,88.78
2023-01-28T05:04:39.235Z,88.80
2023-01-28T05:07:14.350Z,88.22
2023-01-28T05:09:45.137Z,88.50
2023-01-28T05:12:15.865Z,88.01
2023-01-28T05:14:47.200Z,88.01
2023-01-28T05:17:21.470Z,88.51
2023-01-28T05:19:51.600Z,88.21
2023-01-28T05:22:27.530Z,88.20
2023-01-28T05:25:20.109Z,88.16
2023-01-28T05:27:53.038Z,88.26
2023-01-28T05:30:24.108Z,87.90
2023-01-28T05:32:58.870Z,87.75
2023-01-28T05:35:28.842Z,87.50
2023-01-28T05:38:01.715Z,87.26
2023-01-28T05:40:32.180Z,87.51
2023-01-28T05:43:02.295Z,87.14
2023-01-28T05:45:40.781Z,86.90
2023-01-28T05:48:34.457Z,86.73
2023-01-28T05:51:39.418Z,86.63
2023-01-28T05:54:13.521Z,85.79
2023-01-28T05:56:43.495Z,86.11
2023-01-28T05:59:14.889Z,86.38
2023-01-28T06:01:46.666Z,86.60
2023-01-28T06:04:19.172Z,86.95
2023-01-28T06:06:49.507Z,87.24
2023-01-28T06:09:22.344Z,87.17
2023-01-28T06:11:53.787Z,87.19
2023-01-28T06:14:24.120Z,87.80
2023-01-28T06:17:08.058Z,87.35
2023-01-28T06:19:49.515Z,87.44
2023-01-28T06:22:20.255Z,87.42
2023-01-28T06:24:53.154Z,87.13
2023-01-28T06:27:22.974Z,87.90
2023-01-28T06:29:52.798Z,87.95
2023-01-28T06:32:22.920Z,87.74
2023-01-28T06:34:52.738Z,87.73
2023-01-28T06:37:25.231Z,87.85
2023-01-28T06:39:58.680Z,87.87
2023-01-28T06:42:28.694Z,87.88
2023-01-28T06:44:58.577Z,88.27
2023-01-28T06:47:29.054Z,88.27
2023-01-28T06:49:58.881Z,88.30
2023-01-28T06:52:29.361Z,88.15
2023-01-28T06:55:02.265Z,88.38
2023-01-28T06:57:32.151Z,88.96
2023-01-28T07:00:01.971Z,88.93
2023-01-28T07:02:32.219Z,88.72
2023-01-28T07:05:02.376Z,88.88
2023-01-28T07:07:32.635Z,88.84
2023-01-28T07:10:05.493Z,88.48
2023-01-28T07:12:35.265Z,88.12
2023-01-28T07:15:05.151Z,88.69
2023-01-28T07:17:35.405Z,88.80
2023-01-28T07:20:07.723Z,88.48
2023-01-28T07:22:37.718Z,88.46
2023-01-28T07:25:12.106Z,88.47
2023-01-28T07:27:42.491Z,88.99
2023-01-28T07:30:14.548Z,88.97
2023-01-28T07:32:44.949Z,88.08
2023-01-28T07:35:16.077Z,87.59
2023-01-28T07:37:46.204Z,87.42
2023-01-28T07:40:19.138Z,88.46
2023-01-28T07:42:48.993Z,89.00
2023-01-28T07:45:19.533Z,87.82
2023-01-28T07:47:56.694Z,88.03
2023-01-28T07:50:27.444Z,87.78
2023-01-28T07:52:57.286Z,87.59
2023-01-28T07:55:31.447Z,87.61
2023-01-28T07:58:03.238Z,88.17
2023-01-28T08:00:35.336Z,87.79
2023-01-28T08:03:08.882Z,87.58
2023-01-28T08:05:44.441Z,87.98
2023-01-28T08:08:15.531Z,88.31
2023-01-28T08:10:49.702Z,88.41
2023-01-28T08:13:21.007Z,87.95
2023-01-28T08:15:51.221Z,87.60
2023-01-28T08:18:21.138Z,89.77
2023-01-28T08:20:50.936Z,87.52
2023-01-28T08:23:24.353Z,87.64
2023-01-28T08:25:57.677Z,85.11
2023-01-28T08:28:27.764Z,84.12
2023-01-28T08:30:57.932Z,82.86
2023-01-28T08:33:27.846Z,81.87
2023-01-28T08:35:58.126Z,80.47
2023-01-28T08:38:27.937Z,80.45
2023-01-28T08:41:02.105Z,80.82
2023-01-28T08:43:31.922Z,80.53
2023-01-28T08:46:01.888Z,79.70
2023-01-28T08:48:31.691Z,80.77
2023-01-28T08:51:02.536Z,80.19
2023-01-28T08:53:32.300Z,80.69
2023-01-28T08:56:04.651Z,79.99
2023-01-28T08:58:34.555Z,79.77
2023-01-28T09:01:08.188Z,79.64
2023-01-28T09:03:38.652Z,80.64
2023-01-28T09:06:09.327Z,79.99
2023-01-28T09:08:39.181Z,79.69
2023-01-28T09:11:12.045Z,79.16
2023-01-28T09:13:41.869Z,81.36
2023-01-28T09:16:13.508Z,81.66
2023-01-28T09:18:43.747Z,81.30
2023-01-28T09:21:14.263Z,81.61
2023-01-28T09:23:44.121Z,81.58
2023-01-28T09:26:16.795Z,81.12
2023-01-28T09:28:46.606Z,82.21
2023-01-28T09:31:16.637Z,82.32
2023-01-28T09:33:46.848Z,82.71
2023-01-28T09:36:16.998Z,84.85
2023-01-28T09:38:46.924Z,84.26
2023-01-28T09:41:31.272Z,83.03
2023-01-28T09:44:31.267Z,81.95
2023-01-28T09:47:06.801Z,81.64
2023-01-28T09:49:43.359Z,81.67
2023-01-28T09:52:19.002Z,82.20
2023-01-28T09:54:52.693Z,81.81
2023-01-28T09:57:28.261Z,81.75
2023-01-28T09:59:58.438Z,81.34
2023-01-28T10:02:45.424Z,81.23
2023-01-28T10:05:28.255Z,81.11
2023-01-28T10:08:15.627Z,80.48
2023-01-28T10:10:53.534Z,80.85
2023-01-28T10:13:39.928Z,80.31
2023-01-28T10:16:25.724Z,79.29
2023-01-28T10:19:04.230Z,78.73
2023-01-28T10:21:43.813Z,79.10
2023-01-28T10:24:22.401Z,79.02
2023-01-28T10:26:53.312Z,79.18
2023-01-28T10:29:31.732Z,79.22
2023-01-28T10:32:08.358Z,78.56
2023-01-28T10:34:38.738Z,79.33
2023-01-28T10:37:08.755Z,79.85
2023-01-28T10:39:39.136Z,79.87
2023-01-28T10:42:28.654Z,79.86
2023-01-28T10:45:08.405Z,79.41
2023-01-28T10:47:46.654Z,79.01
2023-01-28T10:50:23.393Z,79.43
2023-01-28T10:52:57.692Z,78.57
2023-01-28T10:55:32.797Z,77.40
2023-01-28T10:58:02.986Z,77.03
2023-01-28T11:00:40.545Z,77.01
2023-01-28T11:03:22.125Z,76.48
2023-01-28T11:05:57.133Z,76.26
2023-01-28T11:08:29.089Z,75.58
2023-01-28T11:11:02.020Z,75.17
2023-01-28T11:13:33.703Z,74.58
2023-01-28T11:16:13.831Z,74.85
2023-01-28T11:18:53.588Z,74.31
2023-01-28T11:21:27.371Z,73.67
2023-01-28T11:24:01.864Z,73.02
2023-01-28T11:26:36.614Z,72.86
2023-01-28T11:29:08.016Z,73.12
2023-01-28T11:31:47.009Z,71.66
2023-01-28T11:34:21.043Z,71.19
2023-01-28T11:36:56.156Z,70.52
2023-01-28T11:39:29.736Z,70.20
2023-01-28T11:42:14.046Z,70.03
2023-01-28T11:44:44.968Z,70.37
2023-01-28T11:47:40.390Z,71.50
2023-01-28T11:50:26.041Z,70.19
2023-01-28T11:53:11.704Z,70.00
2023-01-28T11:55:57.386Z,70.11
2023-01-28T11:58:39.964Z,70.69
2023-01-28T12:01:18.096Z,70.67
2023-01-28T12:04:20.016Z,69.82
2023-01-28T12:07:02.935Z,70.94
2023-01-28T12:09:45.621Z,71.60
2023-01-28T12:12:37.670Z,72.91
2023-01-28T12:15:32.625Z,73.91
2023-01-28T12:18:21.767Z,74.12
2023-01-28T12:21:08.645Z,74.95
2023-01-28T12:24:03.075Z,74.90
2023-01-28T12:26:48.770Z,76.01
2023-01-28T12:29:31.595Z,75.60
2023-01-28T12:32:21.430Z,75.94
2023-01-28T12:35:32.566Z,75.30
2023-01-28T12:38:12.433Z,75.31
2023-01-28T12:41:01.256Z,75.60
2023-01-28T12:43:49.297Z,75.37
2023-01-28T12:46:39.807Z,75.62
2023-01-28T12:49:17.500Z,74.98
2023-01-28T12:52:02.845Z,75.06
2023-01-28T12:54:44.059Z,74.33
2023-01-28T12:57:22.081Z,74.73
2023-01-28T12:59:57.634Z,73.48
2023-01-28T13:02:35.112Z,73.38
2023-01-28T13:05:14.656Z,74.61
2023-01-28T13:07:53.333Z,73.57
2023-01-28T13:10:32.165Z,75.22
2023-01-28T13:13:03.406Z,74.05
2023-01-28T13:15:34.565Z,73.61
2023-01-28T13:18:07.361Z,72.87
2023-01-28T13:20:49.129Z,72.20
2023-01-28T13:23:28.674Z,73.35
2023-01-28T13:26:13.111Z,73.67
2023-01-28T13:28:43.354Z,74.90
2023-01-28T13:31:17.706Z,74.22
2023-01-28T13:33:51.886Z,74.38
2023-01-28T13:36:31.088Z,73.90
2023-01-28T13:39:08.336Z,74.73
2023-01-28T13:41:46.690Z,74.60
2023-01-28T13:44:29.507Z,73.57
2023-01-28T13:47:15.131Z,73.67
2023-01-28T13:49:49.659Z,72.52
2023-01-28T13:52:25.909Z,72.44
2023-01-28T13:55:03.072Z,71.84
2023-01-28T13:58:24.052Z,73.80
2023-01-28T14:01:26.645Z,73.23
2023-01-28T14:04:31.934Z,74.00
2023-01-28T14:07:33.320Z,75.63
2023-01-28T14:10:21.522Z,76.71
2023-01-28T14:13:21.869Z,77.28
2023-01-28T14:16:22.272Z,78.14
2023-01-28T14:18:55.212Z,77.86
2023-01-28T14:21:31.271Z,77.62
2023-01-28T14:24:02.756Z,77.12
2023-01-28T14:26:45.237Z,76.52
2023-01-28T14:29:36.544Z,76.41
2023-01-28T14:32:17.629Z,76.52
2023-01-28T14:34:49.818Z,76.27
2023-01-28T14:37:24.175Z,76.62
2023-01-28T14:39:59.323Z,77.50
2023-01-28T14:42:34.210Z,77.67
2023-01-28T14:45:36.081Z,77.50
2023-01-28T14:48:26.577Z,77.71
2023-01-28T14:51:15.541Z,77.76
2023-01-28T14:54:13.513Z,77.64
2023-01-28T14:57:03.902Z,77.56
2023-01-28T14:59:45.514Z,77.24
2023-01-28T15:02:22.663Z,78.56
2023-01-28T15:04:56.362Z,78.69
2023-01-28T15:07:29.474Z,78.05
2023-01-28T15:10:04.249Z,78.26
2023-01-28T15:12:40.504Z,77.99
2023-01-28T15:15:20.096Z,78.20
2023-01-28T15:17:51.867Z,77.11
2023-01-28T15:20:27.648Z,78.03
2023-01-28T15:22:57.950Z,78.10
2023-01-28T15:25:32.851Z,77.65
2023-01-28T15:28:04.769Z,77.48
2023-01-28T15:30:35.969Z,77.57
2023-01-28T15:33:08.802Z,78.19
2023-01-28T15:35:50.556Z,78.74
2023-01-28T15:38:21.729Z,78.82
2023-01-28T15:41:01.393Z,79.03
2023-01-28T15:43:34.478Z,78.50
2023-01-28T15:46:04.889Z,78.19
2023-01-28T15:48:38.256Z,78.31
2023-01-28T15:51:21.551Z,78.07
2023-01-28T15:53:55.848Z,78.04
2023-01-28T15:56:30.617Z,78.34
2023-01-28T15:59:13.322Z,78.27
2023-01-28T16:01:43.370Z,79.18
2023-01-28T16:04:26.410Z,78.78
2023-01-28T16:07:01.515Z,79.20
2023-01-28T16:09:36.001Z,79.58
2023-01-28T16:12:07.159Z,80.36
2023-01-28T16:14:45.229Z,80.57
2023-01-28T16:17:22.501Z,80.63
2023-01-28T16:19:58.823Z,80.86
2023-01-28T16:22:37.799Z,81.59
2023-01-28T16:25:29.368Z,81.82
2023-01-28T16:28:00.440Z,81.98
2023-01-28T16:30:31.446Z,83.30
2023-01-28T16:33:01.563Z,83.03
2023-01-28T16:35:56.502Z,83.74
2023-01-28T16:40:56.484Z,83.82
2023-01-28T16:43:26.628Z,84.13
2023-01-28T16:45:57.250Z,85.50
2023-01-28T16:48:27.144Z,85.44
2023-01-28T16:50:57.746Z,85.17
2023-01-28T16:53:36.286Z,85.56
2023-01-28T16:56:19.727Z,86.57
2023-01-28T16:59:00.122Z,82.48
2023-01-28T17:01:30.232Z,84.41
2023-01-28T17:04:00.246Z,85.50
2023-01-28T17:06:30.555Z,86.47
2023-01-28T17:09:03.258Z,86.35
2023-01-28T17:11:34.156Z,86.37
2023-01-28T17:14:05.755Z,86.36
2023-01-28T17:16:35.816Z,86.89
2023-01-28T17:19:05.911Z,87.34
2023-01-28T17:21:36.261Z,87.38
2023-01-28T17:24:09.796Z,87.58
2023-01-28T17:26:40.453Z,87.64
2023-01-28T17:29:10.995Z,88.02
2023-01-28T17:31:41.365Z,88.15
2023-01-28T17:34:12.344Z,88.62
2023-01-28T17:36:42.145Z,89.05
2023-01-28T17:39:14.961Z,89.73
2023-01-28T17:41:44.815Z,90.18
2023-01-28T17:44:17.010Z,90.15
2023-01-28T17:46:47.130Z,90.74
2023-01-28T17:49:17.792Z,91.16
2023-01-28T17:51:48.757Z,91.66
2023-01-28T17:54:22.391Z,91.73
2023-01-28T17:56:52.841Z,91.29
2023-01-28T17:59:24.902Z,91.64
2023-01-28T18:01:57.274Z,91.97
2023-01-28T18:04:27.995Z,91.81
2023-01-28T18:06:57.817Z,92.08
2023-01-28T18:09:30.347Z,92.16
2023-01-28T18:12:00.430Z,91.73
2023-01-28T18:14:30.688Z,91.96
2023-01-28T18:17:00.537Z,91.96
2023-01-28T18:19:30.720Z,91.87
2023-01-28T18:22:01.751Z,92.12
2023-01-28T18:24:34.323Z,91.99
2023-01-28T18:27:04.375Z,92.04
2023-01-28T18:29:34.978Z,92.22
2023-01-28T18:32:05.355Z,91.77
2023-01-28T18:34:36.801Z,91.75
2023-01-28T18:37:07.729Z,92.15
2023-01-28T18:39:40.859Z,92.34
2023-01-28T18:42:11.521Z,92.22
2023-01-28T18:44:41.769Z,92.33
2023-01-28T18:47:11.888Z,92.34
2023-01-28T18:49:44.250Z,91.96
2023-01-28T18:52:14.465Z,92.45
2023-01-28T18:54:47.462Z,92.88
2023-01-28T18:57:17.756Z,92.67
2023-01-28T18:59:48.080Z,92.61
2023-01-28T19:02:18.683Z,92.58
2023-01-28T19:04:49.028Z,92.84
2023-01-28T19:07:18.814Z,92.91
2023-01-28T19:09:51.881Z,93.18
2023-01-28T19:12:22.554Z,92.86
2023-01-28T19:14:52.852Z,93.18
2023-01-28T19:17:22.652Z,93.28
2023-01-28T19:19:53.193Z,93.27
2023-01-28T19:22:23.003Z,93.20
2023-01-28T19:24:55.952Z,93.20
2023-01-28T19:27:25.757Z,92.77
2023-01-28T19:29:55.939Z,93.33
2023-01-28T19:32:25.818Z,93.61
2023-01-28T19:34:55.821Z,93.84
2023-01-28T19:37:26.061Z,93.76
2023-01-28T19:39:58.547Z,93.43
2023-01-28T19:42:28.354Z,93.34
2023-01-28T19:44:58.624Z,93.42
2023-01-28T19:47:28.988Z,93.04
2023-01-28T19:49:59.180Z,92.98
2023-01-28T19:52:29.129Z,93.10
2023-01-28T19:55:01.624Z,92.86
2023-01-28T19:57:32.218Z,93.34
2023-01-28T20:00:02.146Z,93.50
2023-01-28T20:02:35.543Z,93.35
2023-01-28T20:05:05.843Z,92.99
2023-01-28T20:07:36.398Z,93.07
2023-01-28T20:10:12.150Z,93.24
2023-01-28T20:12:42.314Z,93.92
2023-01-28T20:15:13.413Z,93.47
2023-01-28T20:17:44.086Z,93.34
2023-01-28T20:20:15.130Z,93.14
2023-01-28T20:22:44.949Z,92.86
2023-01-28T20:25:18.332Z,92.58
2023-01-28T20:27:50.404Z,92.88
2023-01-28T20:30:20.803Z,92.69
2023-01-28T20:32:51.026Z,92.75
2023-01-28T20:35:21.137Z,92.58
2023-01-28T20:37:51.189Z,92.62
2023-01-28T20:40:24.301Z,92.93
2023-01-28T20:42:54.339Z,93.17
2023-01-28T20:45:24.280Z,93.34
2023-01-28T20:47:54.659Z,93.17
2023-01-28T20:50:24.648Z,93.10
2023-01-28T20:52:54.966Z,93.43
2023-01-28T20:55:28.604Z,93.23
2023-01-28T20:57:59.444Z,93.17
2023-01-28T21:00:29.625Z,93.36
2023-01-28T21:03:01.075Z,93.42
2023-01-28T21:05:31.238Z,93.77
2023-01-28T21:08:01.019Z,94.06
2023-01-28T21:10:34.201Z,94.18
2023-01-28T21:13:04.120Z,94.43
2023-01-28T21:15:34.460Z,94.23
2023-01-28T21:18:04.857Z,93.90
2023-01-28T21:20:36.897Z,93.70
2023-01-28T21:23:06.844Z,93.61
2023-01-28T21:25:40.819Z,94.07
2023-01-28T21:28:12.680Z,94.10
2023-01-28T21:30:43.300Z,93.87
2023-01-28T21:33:13.194Z,94.17
2023-01-28T21:35:45.960Z,94.14
2023-01-28T21:38:16.039Z,94.01
2023-01-28T21:40:49.131Z,94.23
2023-01-28T21:43:19.031Z,94.19
2023-01-28T21:45:49.317Z,93.91
2023-01-28T21:48:19.340Z,93.99
2023-01-28T21:51:02.173Z,94.08
2023-01-28T21:53:32.014Z,94.05
2023-01-28T21:56:04.529Z,94.17
2023-01-28T21:58:47.475Z,94.47
2023-01-28T22:01:17.410Z,94.50
2023-01-28T22:03:47.732Z,94.45
2023-01-28T22:06:18.072Z,93.76
2023-01-28T22:08:47.887Z,93.94
2023-01-28T22:11:20.694Z,93.92
2023-01-28T22:13:51.353Z,93.95
2023-01-28T22:16:21.656Z,93.71
2023-01-28T22:18:51.747Z,93.58
2023-01-28T22:21:21.668Z,93.73
2023-01-28T22:23:51.450Z,93.65
2023-01-28T22:26:23.893Z,93.48
2023-01-28T22:28:54.191Z,93.67
2023-01-28T22:31:24.243Z,93.78
2023-01-28T22:33:54.122Z,93.72
2023-01-28T22:36:24.024Z,93.30
2023-01-28T22:38:54.082Z,93.62
2023-01-28T22:41:27.031Z,94.04
2023-01-28T22:43:57.175Z,93.68
2023-01-28T22:46:28.128Z,93.79
2023-01-28T22:48:58.506Z,93.55
2023-01-28T22:51:31.938Z,93.85
2023-01-28T22:54:02.657Z,93.64
2023-01-28T22:56:35.302Z,93.81
2023-01-28T22:59:07.250Z,93.25
2023-01-28T23:01:37.589Z,93.16
2023-01-28T23:04:08.137Z,93.43
2023-01-28T23:06:38.246Z,93.35
2023-01-28T23:09:09.252Z,93.51
2023-01-28T23:11:41.722Z,93.77
2023-01-28T23:14:24.927Z,93.87
2023-01-28T23:17:07.260Z,93.68
2023-01-28T23:19:50.459Z,93.64
2023-01-28T23:22:38.354Z,93.65
2023-01-28T23:25:09.490Z,93.70
2023-01-28T23:27:41.912Z,93.56
2023-01-28T23:30:17.163Z,93.82
2023-01-28T23:32:52.402Z,93.94
2023-01-28T23:35:22.829Z,93.91
2023-01-28T23:37:52.708Z,94.04
2023-01-28T23:40:24.935Z,94.64
2023-01-28T23:42:58.442Z,94.62
2023-01-28T23:45:29.020Z,94.36
2023-01-28T23:47:58.842Z,94.14
2023-01-28T23:50:29.078Z,93.80
2023-01-28T23:53:02.051Z,93.46
2023-01-28T23:55:32.474Z,93.37
2023-01-28T23:58:05.104Z,93.72
